Time;durP1;ratioP1;P1;durP2;ratioP2;P2;SDS_P1;SDS_P2;PMS_P1;PMS_P2;Temp;Humidity;BMP_temperature;BMP_pressure;BME280_temperature;BME280_humidity;BME280_pressure;Samples;Min_cycle;Max_cycle;Signal;HPM_P1;HPM_P2
2023/07/14 00:00:36;;;;;;;2.70;2.47;;;23.60;52.50;24.10;100994.00;;;;6272720;22;20222;-51
2023/07/14 00:03:01;;;;;;;3.23;2.60;;;23.60;52.60;24.10;100997.00;;;;6268820;22;20156;-50
2023/07/14 00:05:35;;;;;;;2.97;2.50;;;23.60;52.70;24.10;100987.00;;;;6268149;22;20184;-51
2023/07/14 00:08:02;;;;;;;2.60;2.40;;;23.60;52.80;24.10;100991.00;;;;6268783;22;20510;-52
2023/07/14 00:10:31;;;;;;;3.17;2.47;;;23.60;53.10;24.00;101000.00;;;;6270666;22;20152;-52
2023/07/14 00:13:02;;;;;;;2.60;2.40;;;23.60;53.10;24.00;100992.00;;;;6270277;22;20149;-52
2023/07/14 00:15:31;;;;;;;3.67;2.33;;;23.60;53.20;24.00;101001.00;;;;6269991;22;20566;-52
2023/07/14 00:18:04;;;;;;;2.50;2.27;;;23.50;53.10;24.00;100991.00;;;;6270637;22;20159;-52
2023/07/14 00:20:32;;;;;;;3.67;2.70;;;23.60;53.10;24.00;100979.00;;;;6244280;22;20141;-52
2023/07/14 00:22:58;;;;;;;2.60;2.40;;;23.50;53.10;24.00;100980.00;;;;6268816;22;20156;-52
2023/07/14 00:25:25;;;;;;;3.23;2.60;;;23.60;53.20;24.00;100968.00;;;;6269644;22;20177;-51
2023/07/14 00:27:52;;;;;;;2.67;2.47;;;23.50;53.40;23.90;100971.00;;;;6242970;22;20157;-51
2023/07/14 00:30:23;;;;;;;2.53;2.33;;;23.50;53.40;23.90;100968.00;;;;6270166;22;20663;-51
2023/07/14 00:32:50;;;;;;;6.23;2.77;;;23.40;53.70;23.90;100967.00;;;;6268790;22;20156;-52
2023/07/14 00:35:25;;;;;;;2.80;2.50;;;23.40;53.70;23.80;100962.00;;;;6269674;22;20256;-51
2023/07/14 00:37:52;;;;;;;2.57;2.37;;;23.40;53.70;23.80;100978.00;;;;6270479;22;20198;-51
2023/07/14 00:40:29;;;;;;;3.33;2.70;;;23.40;53.70;23.80;100968.00;;;;6270051;22;20150;-52
2023/07/14 00:42:56;;;;;;;3.53;2.50;;;23.40;53.70;23.80;100964.00;;;;6268509;22;20137;-51
2023/07/14 00:45:25;;;;;;;2.93;2.30;;;23.30;53.60;23.80;100958.00;;;;6243046;22;20180;-51
2023/07/14 00:48:03;;;;;;;3.47;2.30;;;23.40;53.50;23.70;100965.00;;;;6244334;22;20682;-51
2023/07/14 00:50:50;;;;;;;2.47;2.20;;;23.30;53.40;23.50;100888.00;;;;6270956;22;20129;-51
2023/07/14 00:53:25;;;;;;;3.57;2.53;;;23.30;53.40;23.70;100960.00;;;;6249777;22;20164;-51
2023/07/14 00:56:14;;;;;;;3.27;2.43;;;23.30;53.60;23.70;100957.00;;;;6245225;22;20172;-50
2023/07/14 00:58:42;;;;;;;4.13;2.30;;;23.30;53.70;23.70;100954.00;;;;6211924;22;20157;-52
2023/07/14 01:01:12;;;;;;;2.70;2.50;;;23.30;53.70;23.70;100962.00;;;;6271972;22;20224;-51
2023/07/14 01:03:42;;;;;;;2.60;2.40;;;23.20;53.70;23.70;100907.00;;;;6271787;22;20589;-51
2023/07/14 01:06:35;;;;;;;2.90;2.60;;;23.30;53.90;23.70;100972.00;;;;6271753;22;20207;-51
2023/07/14 01:09:12;;;;;;;2.63;2.30;;;23.20;54.10;23.60;100964.00;;;;6250049;22;20224;-51
2023/07/14 01:11:45;;;;;;;2.50;2.30;;;23.20;54.00;23.60;100961.00;;;;6270253;22;20509;-51
2023/07/14 01:14:28;;;;;;;2.57;2.37;;;23.20;54.10;23.60;100960.00;;;;6272264;22;20141;-51
2023/07/14 01:16:54;;;;;;;2.50;2.20;;;23.10;54.00;23.50;100962.00;;;;6270213;22;20472;-51
2023/07/14 01:19:43;;;;;;;3.00;2.70;;;23.10;54.10;23.50;100968.00;;;;6244969;22;20145;-51
2023/07/14 01:22:36;;;;;;;3.80;2.70;;;23.20;54.30;23.50;100960.00;;;;6270684;22;20139;-51
2023/07/14 01:25:52;;;;;;;3.67;2.60;;;23.10;54.20;23.50;100969.00;;;;6269945;22;20215;-51
2023/07/14 01:28:19;;;;;;;2.60;2.40;;;23.10;54.30;23.40;100977.00;;;;6225925;22;20153;-51
2023/07/14 01:30:45;;;;;;;3.60;2.60;;;23.10;54.20;23.40;100961.00;;;;6272011;22;20188;-51
2023/07/14 01:33:17;;;;;;;2.57;2.37;;;23.00;54.30;23.40;100967.00;;;;6271592;22;20567;-51
2023/07/14 01:35:51;;;;;;;4.33;2.70;;;23.00;54.40;23.40;100965.00;;;;6269561;22;20166;-51
2023/07/14 01:38:17;;;;;;;2.97;2.63;;;23.10;54.50;23.40;100962.00;;;;6270470;22;20164;-50
2023/07/14 01:40:43;;;;;;;3.17;2.60;;;23.10;54.20;23.40;100964.00;;;;6269973;22;20581;-51
2023/07/14 01:43:10;;;;;;;3.80;2.90;;;23.00;54.40;23.40;100965.00;;;;6271695;22;20153;-51
2023/07/14 01:45:58;;;;;;;2.83;2.33;;;23.00;54.60;23.10;100971.00;;;;6221304;22;20272;-51
2023/07/14 01:48:30;;;;;;;4.27;2.87;;;22.90;54.40;23.30;100895.00;;;;6247805;22;20204;-51
2023/07/14 01:50:59;;;;;;;2.40;2.20;;;22.90;54.30;23.30;100974.00;;;;6221464;22;20144;-50
2023/07/14 01:53:38;;;;;;;3.20;2.53;;;22.90;54.30;23.30;100969.00;;;;6245197;22;20145;-51
2023/07/14 01:56:06;;;;;;;2.77;2.50;;;22.90;54.20;23.30;100965.00;;;;6245845;22;20667;-52
2023/07/14 01:58:37;;;;;;;2.73;2.40;;;22.90;54.20;23.30;100972.00;;;;6273459;22;20180;-52
2023/07/14 02:01:03;;;;;;;3.30;2.20;;;22.90;54.20;23.30;100958.00;;;;6246372;22;20161;-51
2023/07/14 02:03:59;;;;;;;3.37;2.47;;;22.90;54.10;23.30;100962.00;;;;6245035;22;20160;-51
2023/07/14 02:06:25;;;;;;;2.60;2.40;;;22.90;54.10;23.30;100979.00;;;;6237761;22;20239;-52
2023/07/14 02:08:51;;;;;;;2.83;2.50;;;22.90;54.30;23.20;100971.00;;;;6271746;22;20153;-51
2023/07/14 02:11:22;;;;;;;2.60;2.40;;;22.90;54.30;23.30;100970.00;;;;6271431;22;20149;-51
2023/07/14 02:13:49;;;;;;;2.83;2.40;;;22.80;54.30;23.20;100969.00;;;;6271416;22;20177;-51
2023/07/14 02:16:15;;;;;;;2.70;2.30;;;22.80;54.30;23.20;100954.00;;;;6243868;22;20177;-51
2023/07/14 02:18:42;;;;;;;3.03;2.50;;;22.80;54.30;23.20;100966.00;;;;6269618;22;20511;-50
2023/07/14 02:21:08;;;;;;;2.90;2.60;;;22.80;54.30;23.20;100958.00;;;;6269593;22;20152;-51
2023/07/14 02:23:33;;;;;;;2.60;2.30;;;22.80;54.40;23.20;100941.00;;;;6244203;22;20145;-50
2023/07/14 02:26:22;;;;;;;2.60;2.40;;;22.80;54.30;23.20;100948.00;;;;6218361;22;20181;-52
2023/07/14 02:28:48;;;;;;;2.90;2.57;;;22.80;54.40;23.20;100939.00;;;;6247686;22;20133;-51
2023/07/14 02:31:22;;;;;;;2.93;2.50;;;22.80;54.50;23.20;100950.00;;;;6271081;22;20152;-50
2023/07/14 02:33:50;;;;;;;3.03;2.50;;;22.80;54.60;23.20;100944.00;;;;6245762;22;20582;-51
2023/07/14 02:36:29;;;;;;;2.60;2.40;;;22.80;54.60;23.10;100948.00;;;;6244287;22;20169;-51
2023/07/14 02:38:55;;;;;;;2.97;2.63;;;22.80;54.70;23.10;100951.00;;;;6244538;22;20212;-51
2023/07/14 02:41:29;;;;;;;2.67;2.47;;;22.70;54.80;23.10;100951.00;;;;6271135;22;20230;-51
2023/07/14 02:44:00;;;;;;;2.80;2.50;;;22.70;54.70;23.10;100955.00;;;;6269754;22;20134;-51
2023/07/14 02:46:55;;;;;;;2.83;2.40;;;22.70;54.60;23.10;100956.00;;;;6219429;22;20706;-50
2023/07/14 02:49:21;;;;;;;3.30;2.33;;;22.70;54.40;23.10;100959.00;;;;6271178;22;20137;-51
2023/07/14 02:51:47;;;;;;;2.87;2.60;;;22.70;54.50;23.10;100951.00;;;;6271049;22;20195;-50
2023/07/14 02:54:12;;;;;;;2.93;2.60;;;22.70;54.40;23.10;100961.00;;;;6270999;22;20163;-50
2023/07/14 02:56:38;;;;;;;2.90;2.47;;;22.70;54.60;23.00;100951.00;;;;6270680;22;20199;-51
2023/07/14 02:59:04;;;;;;;3.00;2.60;;;22.70;54.80;23.00;100965.00;;;;6271132;22;20145;-51
2023/07/14 03:01:32;;;;;;;3.53;2.70;;;22.70;54.80;23.00;100953.00;;;;6272247;22;20585;-50
2023/07/14 03:03:58;;;;;;;2.70;2.40;;;22.60;54.90;23.00;100959.00;;;;6272928;22;20141;-52
2023/07/14 03:06:24;;;;;;;2.60;2.40;;;22.60;54.80;23.00;100948.00;;;;6272331;22;20188;-51
2023/07/14 03:08:50;;;;;;;2.50;2.30;;;22.60;54.70;23.00;100944.00;;;;6271152;22;20148;-50
2023/07/14 03:11:16;;;;;;;2.90;2.53;;;22.60;54.50;23.00;100942.00;;;;6272358;22;20480;-50
2023/07/14 03:13:43;;;;;;;3.87;2.57;;;22.60;54.50;23.00;100942.00;;;;6272617;22;20148;-51
2023/07/14 03:16:09;;;;;;;3.33;2.80;;;22.60;54.50;22.90;100943.00;;;;6271791;22;20647;-50
2023/07/14 03:18:35;;;;;;;3.33;2.73;;;22.50;54.40;22.90;100935.00;;;;6272418;22;20220;-50
2023/07/14 03:21:02;;;;;;;3.23;2.43;;;22.60;54.50;22.90;100923.00;;;;6272323;22;20487;-50
2023/07/14 03:23:28;;;;;;;2.77;2.50;;;22.60;54.50;22.90;100931.00;;;;6270870;22;20145;-51
2023/07/14 03:25:54;;;;;;;2.60;2.33;;;22.50;54.40;22.90;100934.00;;;;6271920;22;20184;-51
2023/07/14 03:28:21;;;;;;;9.47;2.70;;;22.50;54.40;22.90;100931.00;;;;6272490;22;20141;-53
2023/07/14 03:30:47;;;;;;;3.30;2.67;;;22.50;54.40;22.90;100945.00;;;;6272055;22;20441;-52
2023/07/14 03:33:12;;;;;;;5.73;2.53;;;22.50;54.90;22.90;100940.00;;;;6272176;22;20239;-52
2023/07/14 03:35:38;;;;;;;3.93;2.63;;;22.50;54.60;22.90;100936.00;;;;6271756;22;20172;-52
2023/07/14 03:38:04;;;;;;;3.47;2.50;;;22.50;54.50;22.90;100935.00;;;;6270510;22;20157;-52
2023/07/14 03:40:30;;;;;;;3.30;2.60;;;22.50;54.40;22.90;100935.00;;;;6272622;22;20531;-52
2023/07/14 03:42:56;;;;;;;2.77;2.47;;;22.50;54.40;22.90;100939.00;;;;6273993;22;20195;-52
2023/07/14 03:45:22;;;;;;;9.20;8.30;;;22.50;54.40;22.80;100933.00;;;;6275129;22;20637;-52
2023/07/14 03:47:49;;;;;;;3.80;3.40;;;22.50;54.70;22.80;100943.00;;;;6272614;22;20145;-52
2023/07/14 03:50:15;;;;;;;3.73;3.20;;;22.50;54.60;22.80;100938.00;;;;6272746;22;20152;-52
2023/07/14 03:52:41;;;;;;;3.30;3.00;;;22.50;54.80;22.80;100916.00;;;;6272607;22;20145;-52
2023/07/14 03:55:09;;;;;;;6.17;3.10;;;22.50;54.90;22.80;100924.00;;;;6271974;22;20248;-52
2023/07/14 03:57:35;;;;;;;3.80;2.60;;;22.50;54.90;22.80;100929.00;;;;6269688;22;20396;-55
2023/07/14 04:00:11;;;;;;;3.07;2.70;;;22.40;54.80;22.70;100923.00;;;;6273334;22;20152;-52
2023/07/14 04:02:38;;;;;;;5.07;3.00;;;22.50;54.80;22.70;100925.00;;;;6271583;22;20211;-52
2023/07/14 04:05:07;;;;;;;3.57;2.70;;;22.50;55.10;22.70;100923.00;;;;6271274;22;20202;-51
2023/07/14 04:07:34;;;;;;;3.37;2.67;;;22.40;55.00;22.70;100930.00;;;;6271765;22;20612;-51
2023/07/14 04:10:00;;;;;;;3.10;2.80;;;22.40;55.00;22.70;100935.00;;;;6271741;22;20612;-52
2023/07/14 04:12:25;;;;;;;3.07;2.53;;;22.40;55.00;22.70;100926.00;;;;6271324;22;20141;-52
2023/07/14 04:14:51;;;;;;;3.80;2.67;;;22.30;55.00;22.60;100932.00;;;;6271108;22;20152;-52
2023/07/14 04:17:17;;;;;;;3.13;2.70;;;22.30;55.00;22.60;100924.00;;;;6271262;22;20168;-51
2023/07/14 04:19:42;;;;;;;4.13;2.87;;;22.30;54.80;22.60;100921.00;;;;6271734;22;20156;-52
2023/07/14 04:22:08;;;;;;;2.90;2.40;;;22.30;54.90;22.60;100918.00;;;;6272899;22;20632;-52
2023/07/14 04:24:34;;;;;;;3.00;2.57;;;22.30;54.80;22.60;100913.00;;;;6273494;22;20485;-52
2023/07/14 04:27:00;;;;;;;2.70;2.50;;;22.30;54.80;22.60;100917.00;;;;6273096;22;20172;-52
2023/07/14 04:29:25;;;;;;;3.50;2.90;;;22.30;55.00;22.60;100918.00;;;;6273868;22;20148;-52
2023/07/14 04:31:51;;;;;;;3.23;2.60;;;22.30;54.80;22.60;100922.00;;;;6273639;22;20176;-52
2023/07/14 04:34:17;;;;;;;3.40;2.60;;;22.30;54.90;22.50;100917.00;;;;6273610;22;20281;-52
2023/07/14 04:36:44;;;;;;;4.20;2.67;;;22.20;54.80;22.50;100920.00;;;;6271651;22;20512;-52
2023/07/14 04:39:11;;;;;;;4.37;2.83;;;22.30;55.00;22.50;100912.00;;;;6274011;22;20145;-50
2023/07/14 04:41:37;;;;;;;3.03;2.73;;;22.20;54.70;22.50;100912.00;;;;6273294;22;20492;-51
2023/07/14 04:44:13;;;;;;;2.50;2.30;;;22.20;54.60;22.50;100924.00;;;;6273406;22;20149;-50
2023/07/14 04:46:39;;;;;;;2.73;2.53;;;22.20;54.60;22.50;100927.00;;;;6271288;22;20189;-50
2023/07/14 04:49:05;;;;;;;3.20;2.50;;;22.20;54.60;22.50;100921.00;;;;6272778;22;20168;-51
2023/07/14 04:51:32;;;;;;;3.87;2.70;;;22.20;54.90;22.50;100926.00;;;;6271428;22;20153;-51
2023/07/14 04:53:58;;;;;;;2.90;2.60;;;22.20;55.00;22.50;100923.00;;;;6246290;22;20152;-52
2023/07/14 04:56:24;;;;;;;2.93;2.60;;;22.20;54.90;22.50;100923.00;;;;6269743;22;20168;-51
2023/07/14 04:58:49;;;;;;;2.80;2.53;;;22.20;54.80;22.50;100921.00;;;;6272140;22;20608;-52
2023/07/14 05:01:15;;;;;;;2.70;2.50;;;22.20;54.80;22.50;100935.00;;;;6272152;22;20144;-51
2023/07/14 05:03:41;;;;;;;3.07;2.43;;;22.20;54.70;22.50;100934.00;;;;6272137;22;20156;-51
2023/07/14 05:06:07;;;;;;;2.80;2.37;;;22.10;54.60;22.50;100922.00;;;;6271387;22;20184;-51
2023/07/14 05:08:33;;;;;;;3.43;2.40;;;22.10;54.60;22.40;100913.00;;;;6272732;22;20145;-51
2023/07/14 05:10:58;;;;;;;2.60;2.30;;;22.00;54.80;22.40;100917.00;;;;6273037;22;20148;-51
2023/07/14 05:13:24;;;;;;;3.00;2.50;;;21.90;54.90;22.40;100902.00;;;;6272966;22;20141;-50
2023/07/14 05:15:50;;;;;;;3.20;2.80;;;21.90;55.00;22.40;100910.00;;;;6259543;22;20176;-51
2023/07/14 05:18:16;;;;;;;3.53;3.00;;;21.90;55.10;22.40;100901.00;;;;6272862;22;20134;-51
2023/07/14 05:20:43;;;;;;;4.30;2.70;;;21.90;55.20;22.40;100844.00;;;;6271666;22;20153;-50
2023/07/14 05:23:11;;;;;;;2.60;2.40;;;21.90;55.00;22.40;100901.00;;;;6273258;22;20165;-52
2023/07/14 05:25:37;;;;;;;3.20;2.67;;;21.90;56.20;22.40;100909.00;;;;6272676;22;20192;-51
2023/07/14 05:28:03;;;;;;;2.97;2.67;;;21.90;55.60;22.30;100910.00;;;;6271172;22;20207;-52
2023/07/14 05:30:28;;;;;;;2.67;2.47;;;21.90;55.70;22.30;100910.00;;;;6273039;22;20151;-51
2023/07/14 05:32:54;;;;;;;3.50;2.63;;;21.90;55.70;22.30;100905.00;;;;6272506;22;20168;-51
2023/07/14 05:35:20;;;;;;;4.43;2.50;;;21.90;55.70;22.30;100908.00;;;;6272350;22;20172;-51
2023/07/14 05:37:46;;;;;;;2.70;2.50;;;21.80;55.60;22.30;100894.00;;;;6273421;22;20145;-50
2023/07/14 05:40:13;;;;;;;3.13;2.40;;;21.80;55.50;22.30;100901.00;;;;6273071;22;20156;-50
2023/07/14 05:42:39;;;;;;;3.00;2.70;;;21.80;55.50;22.30;100888.00;;;;6273027;22;20156;-51
2023/07/14 05:45:06;;;;;;;3.37;2.73;;;21.80;55.50;22.30;100906.00;;;;6276805;22;20165;-51
2023/07/14 05:47:35;;;;;;;2.77;2.43;;;21.80;55.50;22.30;100902.00;;;;6277064;22;20593;-50
2023/07/14 05:50:01;;;;;;;3.33;2.70;;;21.90;55.50;22.30;100881.00;;;;6272660;22;20151;-50
2023/07/14 05:52:26;;;;;;;3.20;2.53;;;21.90;55.50;22.30;100901.00;;;;6271063;22;20322;-56
2023/07/14 05:54:52;;;;;;;2.73;2.50;;;21.80;55.40;22.30;100903.00;;;;6270549;22;20152;-51
2023/07/14 05:57:18;;;;;;;3.63;2.60;;;21.80;55.50;22.20;100902.00;;;;6272982;22;20145;-51
2023/07/14 05:59:43;;;;;;;2.60;2.40;;;21.80;55.60;22.20;100908.00;;;;6275225;22;20255;-51
2023/07/14 06:02:13;;;;;;;3.40;2.30;;;21.80;55.50;22.20;100908.00;;;;6273017;22;20148;-51
2023/07/14 06:04:39;;;;;;;3.37;2.67;;;21.80;55.50;22.20;100911.00;;;;6272389;22;20519;-51
2023/07/14 06:07:06;;;;;;;3.63;2.50;;;21.80;55.50;22.00;100908.00;;;;6272337;22;20168;-50
2023/07/14 06:09:38;;;;;;;2.57;2.37;;;21.90;56.00;22.20;100910.00;;;;6272653;22;20169;-52
2023/07/14 06:12:05;;;;;;;3.60;2.80;;;21.80;55.70;22.20;100910.00;;;;6272381;22;20141;-50
2023/07/14 06:14:32;;;;;;;3.23;2.50;;;21.80;55.70;22.20;100914.00;;;;6272588;22;20501;-50
2023/07/14 06:16:59;;;;;;;2.67;2.47;;;21.80;55.80;22.00;100909.00;;;;6272553;22;20204;-51
2023/07/14 06:19:25;;;;;;;5.80;3.00;;;21.80;56.00;22.20;100907.00;;;;6271554;22;20148;-51
2023/07/14 06:21:51;;;;;;;2.63;2.43;;;21.80;56.00;22.20;100906.00;;;;6273341;22;20216;-52
2023/07/14 06:24:17;;;;;;;2.97;2.63;;;21.80;56.00;22.20;100900.00;;;;6272430;22;20149;-50
2023/07/14 06:26:43;;;;;;;2.53;2.30;;;21.70;56.00;22.20;100902.00;;;;6271807;22;20185;-50
2023/07/14 06:29:08;;;;;;;2.60;2.40;;;21.70;56.00;22.20;100900.00;;;;6272550;22;20655;-50
2023/07/14 06:31:34;;;;;;;2.90;2.60;;;21.70;56.00;22.20;100899.00;;;;6272636;22;20153;-50
2023/07/14 06:34:00;;;;;;;2.93;2.53;;;21.80;56.20;22.20;100896.00;;;;6272644;22;20167;-50
2023/07/14 06:36:26;;;;;;;2.63;2.43;;;21.70;56.30;22.20;100883.00;;;;6271950;22;20169;-50
2023/07/14 06:38:52;;;;;;;3.73;2.80;;;21.70;56.60;22.20;100877.00;;;;6272721;22;20145;-50
2023/07/14 06:41:17;;;;;;;3.37;2.80;;;21.80;56.40;22.20;100885.00;;;;6272455;22;20528;-51
2023/07/14 06:43:43;;;;;;;3.17;2.50;;;21.80;56.20;22.20;100882.00;;;;6271229;22;20494;-51
2023/07/14 06:46:09;;;;;;;3.10;2.57;;;21.80;56.30;22.20;100873.00;;;;6271297;22;20180;-51
2023/07/14 06:48:34;;;;;;;3.60;2.43;;;21.70;56.40;22.20;100871.00;;;;6272614;22;20149;-50
2023/07/14 06:51:00;;;;;;;2.73;2.47;;;21.70;56.30;22.20;100822.00;;;;6272222;22;20141;-51
2023/07/14 06:53:26;;;;;;;2.80;2.50;;;21.70;56.40;22.20;100875.00;;;;6272188;22;20148;-52
2023/07/14 06:55:52;;;;;;;2.70;2.50;;;21.70;56.30;22.20;100878.00;;;;6271590;22;20208;-50
2023/07/14 06:58:18;;;;;;;2.87;2.40;;;21.70;57.20;22.20;100870.00;;;;6272098;22;20215;-51
2023/07/14 07:00:44;;;;;;;2.90;2.50;;;21.80;56.40;22.30;100863.00;;;;6272011;22;20272;-49
2023/07/14 07:03:10;;;;;;;2.80;2.50;;;21.80;56.70;22.30;100862.00;;;;6271846;22;20153;-52
2023/07/14 07:05:38;;;;;;;3.63;2.40;;;21.80;56.80;22.30;100856.00;;;;6270753;22;20426;-51
2023/07/14 07:08:05;;;;;;;3.40;2.60;;;21.90;56.60;22.30;100853.00;;;;6270789;22;20616;-51
2023/07/14 07:10:33;;;;;;;2.97;2.60;;;21.80;56.40;22.30;100854.00;;;;6268538;22;20165;-49
2023/07/14 07:12:58;;;;;;;2.77;2.40;;;21.70;56.40;22.30;100856.00;;;;6271676;22;20168;-50
2023/07/14 07:15:24;;;;;;;2.50;2.30;;;21.80;56.50;22.30;100852.00;;;;6270353;22;20165;-50
2023/07/14 07:17:50;;;;;;;2.63;2.30;;;21.80;56.60;22.30;100847.00;;;;6270683;22;20157;-51
2023/07/14 07:20:15;;;;;;;2.83;2.40;;;21.80;56.70;22.30;100855.00;;;;6271259;22;20148;-50
2023/07/14 07:22:42;;;;;;;4.20;2.63;;;21.90;57.00;22.40;100849.00;;;;6271206;22;20488;-50
2023/07/14 07:25:08;;;;;;;3.57;2.50;;;21.90;56.90;22.40;100848.00;;;;6268849;22;20230;-50
2023/07/14 07:27:34;;;;;;;3.37;2.40;;;21.90;56.80;22.40;100844.00;;;;6271080;22;20519;-51
2023/07/14 07:30:00;;;;;;;3.20;2.70;;;21.90;56.70;22.40;100834.00;;;;6270916;22;20145;-50
2023/07/14 07:32:27;;;;;;;3.20;2.73;;;21.90;56.60;22.40;100835.00;;;;6271306;22;20190;-50
2023/07/14 07:34:53;;;;;;;2.80;2.50;;;21.90;57.10;22.40;100837.00;;;;6268883;22;20163;-50
2023/07/14 07:37:19;;;;;;;3.00;2.50;;;21.90;56.90;22.40;100831.00;;;;6269488;22;20148;-51
2023/07/14 07:39:45;;;;;;;3.13;2.43;;;21.90;56.70;22.30;100832.00;;;;6269691;22;20465;-50
2023/07/14 07:42:11;;;;;;;2.93;2.50;;;21.90;56.90;22.40;100825.00;;;;6271102;22;20149;-50
2023/07/14 07:44:37;;;;;;;4.53;2.63;;;21.90;56.90;22.40;100836.00;;;;6270156;22;20601;-51
2023/07/14 07:47:03;;;;;;;3.37;2.40;;;21.90;57.20;22.30;100823.00;;;;6271962;22;20278;-50
2023/07/14 07:49:29;;;;;;;3.03;2.33;;;21.80;57.10;22.30;100815.00;;;;6269703;22;20144;-50
2023/07/14 07:51:54;;;;;;;2.83;2.33;;;21.80;56.90;22.30;100815.00;;;;6270521;22;20231;-50
2023/07/14 07:54:21;;;;;;;3.60;2.70;;;21.80;56.90;22.30;100820.00;;;;6270622;22;20222;-50
2023/07/14 07:56:47;;;;;;;2.50;2.30;;;21.80;56.90;22.40;100817.00;;;;6270763;22;20180;-52
2023/07/14 07:59:15;;;;;;;3.17;2.50;;;21.90;56.80;22.40;100750.00;;;;6270603;22;20647;-50
2023/07/14 08:01:42;;;;;;;3.80;2.67;;;21.90;56.90;22.30;100810.00;;;;6273934;22;20176;-51
2023/07/14 08:04:09;;;;;;;2.63;2.13;;;21.80;56.90;22.40;100815.00;;;;6274035;22;20173;-51
2023/07/14 08:06:36;;;;;;;3.43;2.50;;;21.80;56.90;22.40;100809.00;;;;6271747;22;20191;-51
2023/07/14 08:09:03;;;;;;;2.70;2.50;;;21.90;57.20;22.40;100810.00;;;;6272463;22;20145;-51
2023/07/14 08:11:29;;;;;;;3.83;2.60;;;22.00;57.10;22.50;100807.00;;;;6272182;22;20144;-50
2023/07/14 08:13:54;;;;;;;3.60;2.50;;;21.90;56.90;22.50;100802.00;;;;6272194;22;20648;-51
2023/07/14 08:16:20;;;;;;;3.63;2.50;;;22.00;57.00;22.50;100799.00;;;;6268067;22;20255;-51
2023/07/14 08:18:47;;;;;;;2.57;2.30;;;22.00;56.90;22.50;100801.00;;;;6271687;22;20259;-53
2023/07/14 08:21:13;;;;;;;3.43;2.73;;;22.00;57.10;22.50;100798.00;;;;6271330;22;20172;-53
2023/07/14 08:23:40;;;;;;;3.10;2.43;;;22.00;57.20;22.50;100805.00;;;;6271190;22;20547;-51
2023/07/14 08:26:06;;;;;;;2.97;2.67;;;21.90;57.00;22.50;100798.00;;;;6270686;22;20219;-51
2023/07/14 08:28:32;;;;;;;2.40;2.20;;;21.90;56.90;22.50;100797.00;;;;6271114;22;20600;-51
2023/07/14 08:31:00;;;;;;;2.57;2.37;;;21.90;56.90;22.50;100797.00;;;;6271251;22;20453;-51
2023/07/14 08:33:26;;;;;;;3.77;2.70;;;22.00;57.00;22.50;100762.00;;;;6269200;22;20184;-51
2023/07/14 08:35:53;;;;;;;3.17;2.53;;;22.00;56.90;22.60;100716.00;;;;6268767;22;20165;-50
2023/07/14 08:38:19;;;;;;;2.70;2.50;;;22.10;56.80;22.40;100783.00;;;;6270828;22;20152;-51
2023/07/14 08:41:00;;;;;;;2.80;2.50;;;22.10;56.70;22.70;100790.00;;;;6271659;22;20152;-51
2023/07/14 08:43:36;;;;;;;2.67;2.43;;;22.10;56.70;22.60;100793.00;;;;6271121;22;20186;-51
2023/07/14 08:46:21;;;;;;;4.47;2.77;;;22.10;56.90;22.60;100773.00;;;;6268456;22;20549;-51
2023/07/14 08:48:54;;;;;;;2.70;2.50;;;22.10;56.90;22.70;100777.00;;;;6247089;22;20130;-51
2023/07/14 08:51:36;;;;;;;3.73;2.63;;;22.20;57.10;22.70;100782.00;;;;6220269;22;20485;-51
2023/07/14 08:54:20;;;;;;;2.80;2.50;;;22.20;57.10;22.70;100773.00;;;;6224309;22;20141;-51
2023/07/14 08:56:45;;;;;;;3.73;2.60;;;22.20;56.90;22.70;100756.00;;;;6242882;22;20169;-51
2023/07/14 08:59:18;;;;;;;3.60;2.60;;;22.20;56.70;22.70;100777.00;;;;6217413;22;20639;-51
2023/07/14 09:01:53;;;;;;;3.60;2.80;;;22.10;56.70;22.70;100768.00;;;;6268721;22;20133;-52
2023/07/14 09:04:34;;;;;;;3.40;2.60;;;22.10;57.30;22.50;100768.00;;;;6244327;22;20144;-51
2023/07/14 09:07:00;;;;;;;5.03;2.70;;;22.20;56.80;22.70;100772.00;;;;6243075;22;20230;-55
2023/07/14 09:09:35;;;;;;;6.43;2.97;;;22.20;57.20;22.70;100696.00;;;;6272071;22;20594;-55
2023/07/14 09:12:20;;;;;;;6.13;2.60;;;22.20;57.40;22.80;100760.00;;;;6245470;22;20180;-56
2023/07/14 09:15:07;;;;;;;3.80;2.60;;;22.30;57.50;22.90;100763.00;;;;6269937;22;20133;-56
2023/07/14 09:17:59;;;;;;;3.90;2.40;;;22.30;57.50;22.90;100764.00;;;;6272106;22;20236;-55
2023/07/14 09:20:46;;;;;;;3.63;2.70;;;22.40;57.40;22.90;100755.00;;;;6270958;22;20138;-56
2023/07/14 09:23:38;;;;;;;3.80;2.67;;;22.40;57.40;23.00;100755.00;;;;6272475;22;20231;-56
2023/07/14 09:26:17;;;;;;;2.90;2.57;;;22.40;57.40;23.00;100747.00;;;;6270766;22;20208;-55
2023/07/14 09:28:48;;;;;;;2.67;2.30;;;22.40;57.40;23.00;100742.00;;;;6271034;22;20133;-55
2023/07/14 09:31:49;;;;;;;3.63;2.63;;;22.40;57.50;23.10;100750.00;;;;6270195;22;20145;-55
2023/07/14 09:34:23;;;;;;;3.67;2.50;;;22.50;57.60;23.10;100753.00;;;;6270543;22;20132;-55
2023/07/14 09:36:49;;;;;;;3.27;2.70;;;22.50;57.60;23.10;100749.00;;;;6245183;22;20172;-55
2023/07/14 09:39:21;;;;;;;2.57;2.30;;;22.50;57.70;23.20;100749.00;;;;6270440;22;20176;-55
2023/07/14 09:41:50;;;;;;;2.90;2.57;;;22.50;57.70;23.20;100746.00;;;;6221770;22;20161;-55
2023/07/14 09:44:16;;;;;;;2.50;2.30;;;22.50;57.70;23.20;100741.00;;;;6270840;22;20149;-55
2023/07/14 09:46:46;;;;;;;2.90;2.30;;;22.50;57.70;23.20;100734.00;;;;6243729;22;20184;-55
2023/07/14 09:49:43;;;;;;;2.67;2.30;;;22.50;57.80;23.10;100757.00;;;;6271251;22;20518;-56
2023/07/14 09:52:13;;;;;;;5.50;2.30;;;22.60;57.80;23.30;100736.00;;;;6152108;22;20149;-55
2023/07/14 09:54:49;;;;;;;2.57;2.37;;;22.50;58.00;23.30;100730.00;;;;6272214;22;20141;-55
2023/07/14 09:57:17;;;;;;;2.63;2.43;;;22.60;58.10;23.30;100730.00;;;;6269784;22;20130;-54
2023/07/14 09:59:53;;;;;;;3.50;2.20;;;22.60;58.10;23.30;100722.00;;;;6272191;22;20228;-55
2023/07/14 10:02:19;;;;;;;2.67;2.43;;;22.60;58.20;23.40;100720.00;;;;6270665;22;20366;-55
2023/07/14 10:04:47;;;;;;;2.90;2.30;;;22.60;58.40;23.40;100691.00;;;;6245573;22;20141;-54
2023/07/14 10:07:25;;;;;;;2.47;2.23;;;22.60;58.60;23.40;100709.00;;;;6270487;22;20215;-55
2023/07/14 10:10:08;;;;;;;2.60;2.10;;;22.70;58.70;23.40;100693.00;;;;6270702;22;20149;-55
2023/07/14 10:12:46;;;;;;;2.40;2.20;;;22.60;58.60;23.40;100702.00;;;;6271394;22;20137;-55
2023/07/14 10:15:35;;;;;;;2.57;2.37;;;22.70;58.70;23.40;100688.00;;;;6272798;22;20647;-55
2023/07/14 10:18:10;;;;;;;2.33;2.13;;;22.70;58.70;23.40;100685.00;;;;6271512;22;20581;-55
2023/07/14 10:20:36;;;;;;;2.33;2.10;;;22.70;58.80;23.50;100682.00;;;;6271506;22;20157;-56
2023/07/14 10:23:02;;;;;;;2.40;2.20;;;22.70;58.80;23.50;100684.00;;;;6246648;22;20153;-56
2023/07/14 10:25:29;;;;;;;2.50;2.30;;;22.70;58.90;23.50;100688.00;;;;6272959;22;20185;-55
2023/07/14 10:27:59;;;;;;;2.33;2.13;;;22.80;59.00;23.50;100690.00;;;;6220965;22;20153;-55
2023/07/14 10:30:59;;;;;;;2.40;2.20;;;22.80;59.00;23.60;100677.00;;;;6273414;22;20160;-55
2023/07/14 10:33:29;;;;;;;2.57;2.30;;;22.80;59.00;23.50;100674.00;;;;6271682;22;20134;-55
2023/07/14 10:36:35;;;;;;;2.70;2.40;;;22.80;59.00;23.60;100672.00;;;;6246628;22;20173;-55
2023/07/14 10:39:24;;;;;;;3.03;2.40;;;22.80;59.00;23.60;100665.00;;;;6271751;22;20137;-55
2023/07/14 10:41:49;;;;;;;2.53;2.33;;;22.80;59.00;23.60;100663.00;;;;6234490;22;20160;-55
2023/07/14 10:44:27;;;;;;;2.47;2.27;;;22.90;59.10;23.60;100638.00;;;;6271559;22;20513;-55
2023/07/14 10:46:56;;;;;;;2.60;2.33;;;22.90;59.10;23.70;100657.00;;;;6221274;22;20176;-55
2023/07/14 10:49:32;;;;;;;2.47;2.27;;;22.90;59.10;23.70;100659.00;;;;6271541;22;20224;-54
2023/07/14 10:52:18;;;;;;;2.50;2.30;;;23.00;59.10;23.70;100643.00;;;;6223041;22;20137;-53
2023/07/14 10:54:57;;;;;;;2.33;2.13;;;23.00;59.10;23.70;100653.00;;;;6248448;22;20130;-54
2023/07/14 10:58:03;;;;;;;2.47;2.20;;;23.00;59.10;23.80;100650.00;;;;6270793;22;20133;-54
2023/07/14 11:00:53;;;;;;;2.47;2.27;;;23.00;59.00;23.80;100634.00;;;;6271831;22;20130;-56